createdAt,value
2019-05-16T00:00:25.306Z,10.00
2019-05-16T00:05:33.483Z,10.10
2019-05-16T00:10:40.947Z,10.10
2019-05-16T00:15:48.478Z,10.00
2019-05-16T00:20:58.268Z,10.00
2019-05-16T00:26:04.969Z,10.00
2019-05-16T00:31:12.469Z,10.00
2019-05-16T00:36:38.965Z,10.00
2019-05-16T00:42:12.339Z,10.00
2019-05-16T00:47:19.889Z,10.00
2019-05-16T00:52:28.855Z,10.00
2019-05-16T00:57:38.970Z,9.90
2019-05-16T01:02:48.525Z,9.80
2019-05-16T01:07:55.775Z,9.90
2019-05-16T01:13:03.251Z,9.80
2019-05-16T01:18:10.809Z,9.80
2019-05-16T01:23:19.303Z,9.70
2019-05-16T01:28:28.421Z,9.60
2019-05-16T01:33:38.517Z,9.60
2019-05-16T01:38:48.078Z,9.60
2019-05-16T01:43:55.261Z,9.60
2019-05-16T01:49:02.752Z,9.50
2019-05-16T01:54:10.175Z,9.50
2019-05-16T01:59:18.146Z,9.40
2019-05-16T02:04:25.811Z,9.30
2019-05-16T02:09:33.173Z,9.40
2019-05-16T02:14:40.618Z,9.40
2019-05-16T02:19:48.523Z,9.40
2019-05-16T02:24:58.355Z,9.40
2019-05-16T02:30:06.008Z,9.40
2019-05-16T02:35:13.763Z,9.50
2019-05-16T02:40:25.566Z,9.50
2019-05-16T02:45:33.029Z,9.20
2019-05-16T02:50:41.437Z,9.20
2019-05-16T02:55:51.627Z,9.10
2019-05-16T03:01:01.436Z,9.20
2019-05-16T03:06:10.927Z,9.00
2019-05-16T03:11:20.985Z,8.90
2019-05-16T03:16:31.526Z,9.00
2019-05-16T03:22:01.229Z,9.10
2019-05-16T03:27:10.881Z,9.20
2019-05-16T03:32:23.584Z,9.00
2019-05-16T03:37:30.522Z,8.90
2019-05-16T03:42:36.836Z,9.10
2019-05-16T03:47:57.076Z,9.20
2019-05-16T03:53:31.465Z,9.10
2019-05-16T03:59:01.393Z,9.10
2019-05-16T04:04:21.549Z,9.10
2019-05-16T04:09:31.532Z,9.10
2019-05-16T04:14:41.031Z,8.90
2019-05-16T04:19:47.329Z,9.00
2019-05-16T04:24:54.672Z,8.90
2019-05-16T04:30:02.339Z,8.90
2019-05-16T04:35:11.299Z,9.00
2019-05-16T04:40:21.878Z,8.90
2019-05-16T04:45:31.575Z,8.90
2019-05-16T04:50:37.591Z,8.80
2019-05-16T04:55:45.120Z,8.90
2019-05-16T05:00:52.711Z,9.00
2019-05-16T05:06:01.223Z,8.90
2019-05-16T05:11:10.700Z,8.60
2019-05-16T05:16:20.354Z,8.60
2019-05-16T05:21:27.377Z,8.70
2019-05-16T05:26:36.872Z,8.70
2019-05-16T05:31:45.597Z,8.70
2019-05-16T05:36:53.369Z,8.50
2019-05-16T05:42:00.939Z,8.40
2019-05-16T05:47:10.566Z,8.60
2019-05-16T05:52:17.582Z,8.60
2019-05-16T05:57:25.059Z,8.70
2019-05-16T06:02:32.521Z,8.60
2019-05-16T06:07:40.636Z,8.80
2019-05-16T06:12:50.066Z,8.70
2019-05-16T06:18:00.069Z,8.90
2019-05-16T06:23:06.549Z,8.80
2019-05-16T06:28:13.938Z,8.70
2019-05-16T06:33:21.402Z,8.60
2019-05-16T06:38:29.875Z,8.80
2019-05-16T06:43:39.869Z,8.80
2019-05-16T06:48:46.567Z,9.10
2019-05-16T06:53:53.979Z,9.10
2019-05-16T06:59:01.351Z,9.00
2019-05-16T07:04:10.476Z,9.00
2019-05-16T07:09:20.515Z,9.20
2019-05-16T07:14:30.738Z,9.20
2019-05-16T07:19:36.521Z,9.20
2019-05-16T07:24:44.019Z,9.40
2019-05-16T07:29:51.458Z,9.20
2019-05-16T07:35:00.328Z,9.10
2019-05-16T07:40:19.314Z,9.10
2019-05-16T07:45:20.456Z,9.10
2019-05-16T07:50:29.900Z,9.20
2019-05-16T07:55:36.603Z,9.40
2019-05-16T08:00:52.454Z,9.60
2019-05-16T08:05:53.247Z,9.50
2019-05-16T08:11:01.652Z,9.50
2019-05-16T08:16:10.192Z,9.50
2019-05-16T08:21:20.121Z,9.70
2019-05-16T08:26:31.509Z,9.80
2019-05-16T08:31:37.335Z,10.00
2019-05-16T08:36:44.776Z,9.80
2019-05-16T08:41:52.298Z,9.90
2019-05-16T08:47:06.027Z,10.00
2019-05-16T08:52:11.449Z,10.20
2019-05-16T08:57:28.972Z,10.20
2019-05-16T09:02:33.556Z,10.10
2019-05-16T09:07:36.160Z,10.10
2019-05-16T09:12:43.635Z,10.30
2019-05-16T09:17:51.297Z,10.40
2019-05-16T09:22:58.857Z,10.50
2019-05-16T09:28:07.489Z,10.60
2019-05-16T09:33:17.606Z,10.40
2019-05-16T09:38:28.175Z,10.40
2019-05-16T09:43:34.338Z,10.40
2019-05-16T11:40:51.114Z,10.60
2019-05-16T11:59:08.524Z,10.70
2019-05-16T12:04:17.439Z,10.40
2019-05-16T12:09:32.204Z,10.80
2019-05-16T12:14:36.599Z,11.30
2019-05-16T12:19:44.114Z,11.40
2019-05-16T12:24:52.885Z,11.70
2019-05-16T12:30:00.377Z,11.80
2019-05-16T12:35:08.375Z,12.10
2019-05-16T12:40:17.878Z,12.10
2019-05-16T12:45:27.555Z,12.00
2019-05-16T12:50:38.377Z,12.10
2019-05-16T12:55:44.286Z,12.20
2019-05-16T13:00:57.625Z,12.20
2019-05-16T13:06:00.756Z,12.20
2019-05-16T13:11:08.322Z,12.10
2019-05-16T13:16:16.728Z,12.00
2019-05-16T13:21:27.291Z,12.00
2019-05-16T13:26:33.546Z,12.10
2019-05-16T13:31:41.271Z,12.10
2019-05-16T13:36:48.770Z,12.20
2019-05-16T13:41:59.115Z,12.30
2019-05-16T13:47:07.642Z,12.10
2019-05-16T13:52:16.657Z,12.20
2019-05-16T13:57:28.079Z,12.20
2019-05-16T14:02:33.506Z,12.40
2019-05-16T14:07:41.098Z,12.50
2019-05-16T14:12:50.208Z,12.30
2019-05-16T14:17:57.758Z,12.30
2019-05-16T14:23:08.032Z,12.10
2019-05-16T14:28:17.007Z,12.10
2019-05-16T14:33:23.692Z,12.00
2019-05-16T14:38:31.143Z,12.10
2019-05-16T14:43:38.673Z,12.20
2019-05-16T14:48:46.142Z,11.90
2019-05-16T14:53:53.657Z,12.20
2019-05-16T14:59:01.165Z,11.90
2019-05-16T15:04:08.686Z,12.10
2019-05-16T15:09:17.391Z,12.20
2019-05-16T15:14:27.852Z,12.40
2019-05-16T15:19:34.419Z,12.40
2019-05-16T15:24:42.049Z,12.40
2019-05-16T15:29:50.885Z,12.60
2019-05-16T15:34:58.695Z,12.70
2019-05-16T15:40:07.190Z,12.70
2019-05-16T15:45:19.268Z,12.50
2019-05-16T15:50:28.116Z,12.50
2019-05-16T15:55:36.696Z,12.70
2019-05-16T16:00:49.100Z,12.50
2019-05-16T16:05:56.830Z,12.10
2019-05-16T16:11:07.062Z,12.20
2019-05-16T16:16:13.948Z,12.20
2019-05-16T16:21:21.673Z,12.10
2019-05-16T16:26:33.818Z,12.30
2019-05-16T16:31:41.612Z,12.10
2019-05-16T16:36:50.901Z,12.00
2019-05-16T16:41:59.370Z,12.00
2019-05-16T16:47:07.404Z,12.10
2019-05-16T16:52:16.708Z,12.20
2019-05-16T16:57:26.926Z,12.00
2019-05-16T17:02:34.058Z,12.00
2019-05-16T17:07:41.910Z,12.20
2019-05-16T17:12:49.690Z,12.30
2019-05-16T17:17:57.496Z,12.40
2019-05-16T17:23:17.367Z,12.40
2019-05-16T17:29:30.003Z,12.40
2019-05-16T17:34:37.454Z,12.40
2019-05-16T17:39:47.499Z,12.40
2019-05-16T17:44:56.573Z,12.30
2019-05-16T17:50:06.214Z,12.40
2019-05-16T17:55:17.258Z,12.40
2019-05-16T18:00:29.035Z,12.40
2019-05-16T18:05:37.276Z,12.40
2019-05-16T18:10:47.169Z,12.30
2019-05-16T18:15:56.735Z,12.30
2019-05-16T18:21:06.699Z,12.30
2019-05-16T18:26:13.718Z,12.30
2019-05-16T18:31:21.294Z,12.20
2019-05-16T18:36:28.921Z,12.00
2019-05-16T18:41:36.687Z,12.10
2019-05-16T18:46:47.069Z,12.10
2019-05-16T18:51:56.920Z,12.10
2019-05-16T18:57:04.111Z,12.00
2019-05-16T19:02:11.923Z,12.00
2019-05-16T19:07:20.650Z,12.00
2019-05-16T19:12:28.406Z,11.90
2019-05-16T19:17:35.914Z,11.70
2019-05-16T19:22:43.297Z,11.80
2019-05-16T19:27:51.562Z,11.90
2019-05-16T19:32:59.199Z,11.90
2019-05-16T19:38:07.043Z,11.80
2019-05-16T19:43:14.703Z,11.80
2019-05-16T19:48:22.164Z,11.80
2019-05-16T19:53:29.703Z,11.70
2019-05-16T19:58:37.445Z,11.70
2019-05-16T20:03:47.155Z,11.80
2019-05-16T20:08:55.779Z,11.70
2019-05-16T20:14:03.371Z,11.70
2019-05-16T20:19:11.054Z,11.70
2019-05-16T20:24:18.573Z,11.60
2019-05-16T20:29:27.405Z,11.60
2019-05-16T20:34:37.046Z,11.60
2019-05-16T20:39:43.859Z,11.60
2019-05-16T20:44:51.319Z,11.50
2019-05-16T20:49:59.704Z,11.50
2019-05-16T20:55:07.751Z,11.40
2019-05-16T21:00:17.499Z,11.40
2019-05-16T21:05:26.830Z,11.40
2019-05-16T21:10:34.280Z,11.30
2019-05-16T21:15:41.709Z,11.40
2019-05-16T21:20:49.117Z,11.30
2019-05-16T21:25:57.134Z,11.30
2019-05-16T21:31:04.771Z,11.20
2019-05-16T21:36:12.202Z,11.00
2019-05-16T21:41:19.571Z,10.90
2019-05-16T21:46:27.264Z,10.90
2019-05-16T21:51:37.396Z,10.80
2019-05-16T21:56:46.771Z,10.70
2019-05-16T22:01:56.468Z,10.70
2019-05-16T22:07:04.198Z,10.60
2019-05-16T22:12:11.715Z,10.70
2019-05-16T22:17:19.153Z,10.70
2019-05-16T22:22:29.805Z,10.70
2019-05-16T22:27:35.776Z,10.60
2019-05-16T22:32:43.209Z,10.70
2019-05-16T22:37:55.331Z,10.60
2019-05-16T22:42:59.795Z,10.50
2019-05-16T22:48:07.404Z,10.50
2019-05-16T22:53:17.029Z,10.30
2019-05-16T22:58:23.790Z,10.00
2019-05-16T23:03:31.206Z,10.10
2019-05-16T23:08:38.592Z,9.90
2019-05-16T23:13:46.295Z,9.70
2019-05-16T23:18:53.833Z,9.60
2019-05-16T23:24:01.098Z,9.60
2019-05-16T23:29:08.577Z,9.40
2019-05-16T23:34:15.994Z,9.30
2019-05-16T23:39:23.421Z,9.40
2019-05-16T23:44:30.739Z,9.40
2019-05-16T23:49:38.223Z,9.40
2019-05-16T23:54:47.475Z,9.50
2019-05-16T23:59:56.628Z,9.50
